Time;durP1;ratioP1;P1;durP2;ratioP2;P2;SDS_P1;SDS_P2;PMS_P1;PMS_P2;Temp;Humidity;BMP_temperature;BMP_pressure;BME280_temperature;BME280_humidity;BME280_pressure;Samples;Min_cycle;Max_cycle;Signal;HPM_P1;HPM_P2
2022/12/02 00:00:05;;;;;;;0.00;0.00;;;;;;;6.28;100.00;100045.34;351681;28;1396;-74
2022/12/02 00:00:18;;;;;;;0.00;0.00;;;;;;;6.27;100.00;100036.69;347550;28;1294;-74
2022/12/02 00:00:29;;;;;;;0.00;0.00;;;;;;;6.28;100.00;100046.22;345495;28;974;-74
2022/12/02 00:00:39;;;;;;;0.00;0.00;;;;;;;6.27;100.00;100034.09;347545;28;1713;-74
2022/12/02 00:00:50;;;;;;;0.00;0.00;;;;;;;6.27;100.00;100039.28;347578;28;1315;-74
2022/12/02 00:01:00;;;;;;;0.00;0.00;;;;;;;6.28;100.00;100043.63;347581;28;1219;-74
2022/12/02 00:01:11;;;;;;;0.00;0.00;;;;;;;6.27;100.00;100044.50;344857;28;4289;-74
2022/12/02 00:01:21;;;;;;;0.00;0.00;;;;;;;6.28;100.00;100045.34;346533;28;5612;-74
2022/12/02 00:01:32;;;;;;;0.20;0.20;;;;;;;6.28;100.00;100046.22;347036;28;1240;-74
2022/12/02 00:01:42;;;;;;;0.20;0.20;;;;;;;6.29;100.00;100047.06;346061;28;1985;-74
2022/12/02 00:01:53;;;;;;;0.10;0.10;;;;;;;6.28;100.00;100045.34;347420;28;1820;-74
2022/12/02 00:02:29;;;;;;;0.00;0.00;;;;;;;6.29;100.00;100047.94;346235;28;1314;-75
2022/12/02 00:02:39;;;;;;;0.00;0.00;;;;;;;6.29;100.00;100042.72;346348;28;967;-74
2022/12/02 00:02:50;;;;;;;0.00;0.00;;;;;;;6.30;100.00;100048.78;344826;28;1202;-75
2022/12/02 00:03:00;;;;;;;0.00;0.00;;;;;;;6.29;100.00;100042.72;344086;28;1583;-74
2022/12/02 00:03:11;;;;;;;0.00;0.00;;;;;;;6.29;100.00;100042.72;343100;28;1578;-74
2022/12/02 00:03:23;;;;;;;0.00;0.00;;;;;;;6.29;100.00;100047.94;342539;28;1265;-74
2022/12/02 00:03:35;;;;;;;0.00;0.00;;;;;;;6.29;100.00;100055.72;344636;28;994;-74
2022/12/02 00:03:46;;;;;;;0.00;0.00;;;;;;;6.29;100.00;100047.06;344898;28;947;-74
2022/12/02 00:03:56;;;;;;;0.00;0.00;;;;;;;6.30;100.00;100052.25;343548;28;1228;-75
2022/12/02 00:04:25;;;;;;;0.00;0.00;;;;;;;6.29;100.00;100047.94;343458;28;1747;-74
2022/12/02 00:04:35;;;;;;;0.00;0.00;;;;;;;6.30;100.00;100048.78;342699;28;1540;-74
2022/12/02 00:04:45;;;;;;;0.00;0.00;;;;;;;6.29;100.00;100047.94;344908;28;1240;-74
2022/12/02 00:05:02;;;;;;;0.00;0.00;;;;;;;6.28;100.00;100051.41;340652;29;1222;-74
2022/12/02 00:05:17;;;;;;;0.00;0.00;;;;;;;6.29;100.00;100042.72;338402;29;869;-74
2022/12/02 00:05:31;;;;;;;0.00;0.00;;;;;;;6.28;100.00;100045.34;340214;28;928;-74
2022/12/02 00:05:42;;;;;;;0.00;0.00;;;;;;;6.29;100.00;100053.13;338632;29;1947;-74
2022/12/02 00:05:54;;;;;;;0.00;0.00;;;;;;;6.30;100.00;100052.25;335472;29;1294;-74
2022/12/02 00:06:04;;;;;;;0.00;0.00;;;;;;;6.29;100.00;100050.53;339309;29;894;-74
2022/12/02 00:06:19;;;;;;;0.00;0.00;;;;;;;6.30;100.00;100049.66;342772;28;1561;-74
2022/12/02 00:06:31;;;;;;;0.00;0.00;;;;;;;6.30;100.00;100049.66;341570;28;928;-74
2022/12/02 00:06:41;;;;;;;0.00;0.00;;;;;;;6.29;100.00;100047.94;341001;28;997;-74
2022/12/02 00:06:52;;;;;;;0.00;0.00;;;;;;;6.30;100.00;100044.44;343460;28;917;-74
2022/12/02 00:07:02;;;;;;;0.00;0.00;;;;;;;6.30;100.00;100049.66;341970;28;1399;-74
2022/12/02 00:07:16;;;;;;;0.00;0.00;;;;;;;6.31;100.00;100045.31;339309;29;1366;-74
2022/12/02 00:07:26;;;;;;;0.00;0.00;;;;;;;6.29;100.00;100052.25;337556;28;2068;-74
2022/12/02 00:07:37;;;;;;;0.00;0.00;;;;;;;6.29;100.00;100053.13;343582;28;909;-74
2022/12/02 00:07:47;;;;;;;0.00;0.00;;;;;;;6.28;100.00;100046.22;341212;28;1287;-74
2022/12/02 00:08:09;;;;;;;0.00;0.00;;;;;;;6.28;100.00;100043.63;341807;28;1348;-74
2022/12/02 00:08:21;;;;;;;0.00;0.00;;;;;;;6.29;100.00;100050.53;340431;29;1269;-74
2022/12/02 00:08:31;;;;;;;0.00;0.00;;;;;;;6.29;100.00;100047.94;341761;28;1335;-74
2022/12/02 00:08:42;;;;;;;0.00;0.00;;;;;;;6.30;100.00;100044.44;340871;28;1293;-74
2022/12/02 00:08:53;;;;;;;0.00;0.00;;;;;;;6.30;100.00;100052.25;343583;28;1185;-74
2022/12/02 00:09:29;;;;;;;0.00;0.00;;;;;;;6.30;100.00;100054.84;338181;28;1861;-74
2022/12/02 00:09:40;;;;;;;0.00;0.00;;;;;;;6.30;100.00;100048.78;333221;29;997;-74
2022/12/02 00:09:50;;;;;;;0.00;0.00;;;;;;;6.29;100.00;100053.13;328207;30;904;-74
2022/12/02 00:10:00;;;;;;;0.00;0.00;;;;;;;6.30;100.00;100049.66;327895;30;1693;-74
2022/12/02 00:10:32;;;;;;;0.00;0.00;;;;;;;6.29;100.00;100047.94;326871;30;1483;-74
2022/12/02 00:10:42;;;;;;;0.10;0.10;;;;;;;6.29;100.00;100050.53;325999;30;2186;-74
2022/12/02 00:10:54;;;;;;;0.10;0.10;;;;;;;6.30;100.00;100051.38;329953;29;2028;-74
2022/12/02 00:11:07;;;;;;;0.10;0.10;;;;;;;6.29;100.00;100047.94;322401;30;1777;-74
2022/12/02 00:11:28;;;;;;;0.00;0.00;;;;;;;6.29;100.00;100047.94;322235;30;2209;-74
2022/12/02 00:11:38;;;;;;;0.00;0.00;;;;;;;6.30;100.00;100049.66;320934;30;948;-74
2022/12/02 00:11:49;;;;;;;0.10;0.10;;;;;;;6.30;100.00;100043.59;319348;30;2391;-74
2022/12/02 00:12:15;;;;;;;0.10;0.10;;;;;;;6.31;100.00;100042.69;315396;31;2322;-74
2022/12/02 00:12:26;;;;;;;0.00;0.00;;;;;;;6.30;100.00;100049.66;313874;31;1551;-73
2022/12/02 00:12:37;;;;;;;0.00;0.00;;;;;;;6.31;100.00;100050.50;312916;31;1998;-73
2022/12/02 00:12:47;;;;;;;0.00;0.00;;;;;;;6.31;100.00;100040.97;313838;31;1158;-73
2022/12/02 00:13:25;;;;;;;0.00;0.00;;;;;;;6.31;100.00;100040.97;311055;31;2014;-73
2022/12/02 00:13:40;;;;;;;0.00;0.00;;;;;;;6.30;100.00;100044.44;307430;32;940;-73
2022/12/02 00:13:51;;;;;;;0.00;0.00;;;;;;;6.31;100.00;100053.09;301530;32;1507;-73
2022/12/02 00:14:04;;;;;;;0.00;0.00;;;;;;;6.31;100.00;100050.50;301642;32;3354;-73
2022/12/02 00:14:26;;;;;;;0.00;0.00;;;;;;;6.29;100.00;100047.94;301020;32;3133;-73
2022/12/02 00:14:37;;;;;;;0.00;0.00;;;;;;;6.30;100.00;100048.78;299027;33;1502;-74
2022/12/02 00:14:54;;;;;;;0.00;0.00;;;;;;;6.29;100.00;100045.31;295400;33;2091;-74
2022/12/02 00:15:41;;;;;;;0.00;0.00;;;;;;;6.30;100.00;100049.66;291181;33;1232;-73
2022/12/02 00:15:54;;;;;;;0.00;0.00;;;;;;;6.28;100.00;100043.63;287402;34;963;-73
2022/12/02 00:16:05;;;;;;;0.00;0.00;;;;;;;6.28;100.00;100048.81;288432;33;5043;-74
2022/12/02 00:16:19;;;;;;;0.00;0.00;;;;;;;6.29;100.00;100041.88;287607;34;5066;-74
2022/12/02 00:16:30;;;;;;;0.10;0.10;;;;;;;6.29;100.00;100047.94;285843;34;4290;-74
2022/12/02 00:16:40;;;;;;;0.10;0.10;;;;;;;6.30;100.00;100052.25;284906;34;4376;-74
2022/12/02 00:16:51;;;;;;;0.20;0.20;;;;;;;6.29;100.00;100042.72;286371;34;1231;-74
2022/12/02 00:17:01;;;;;;;0.10;0.10;;;;;;;6.30;100.00;100048.78;284216;34;2984;-74
2022/12/02 00:17:11;;;;;;;0.07;0.07;;;;;;;6.30;100.00;100049.66;283118;34;3561;-74
2022/12/02 00:17:22;;;;;;;0.00;0.00;;;;;;;6.29;100.00;100047.94;282795;35;936;-74
2022/12/02 00:17:33;;;;;;;0.00;0.00;;;;;;;6.28;100.00;100048.81;285800;34;4571;-74
2022/12/02 00:17:43;;;;;;;0.00;0.00;;;;;;;6.28;100.00;100053.16;283046;34;5711;-74
2022/12/02 00:17:53;;;;;;;0.00;0.00;;;;;;;6.27;100.00;100044.50;281771;35;1387;-74
2022/12/02 00:18:04;;;;;;;0.00;0.00;;;;;;;6.28;100.00;100046.22;281400;34;6239;-74
2022/12/02 00:18:15;;;;;;;0.00;0.00;;;;;;;6.27;100.00;100049.69;280007;35;7834;-74
2022/12/02 00:18:25;;;;;;;0.10;0.10;;;;;;;6.28;100.00;100053.16;277205;35;6464;-74
2022/12/02 00:18:36;;;;;;;0.08;0.08;;;;;;;6.29;100.00;100050.53;278708;35;1446;-74
2022/12/02 00:18:46;;;;;;;0.00;0.00;;;;;;;6.27;100.00;100057.50;280479;34;6193;-74
2022/12/02 00:18:57;;;;;;;0.00;0.00;;;;;;;6.27;100.00;100049.69;281391;35;5624;-74
2022/12/02 00:19:07;;;;;;;0.00;0.00;;;;;;;6.28;100.00;100054.00;278262;35;1230;-74
2022/12/02 00:19:18;;;;;;;0.00;0.00;;;;;;;6.29;100.00;100053.13;276175;35;4254;-74
2022/12/02 00:19:28;;;;;;;0.00;0.00;;;;;;;6.30;100.00;100048.78;273462;35;5378;-74
2022/12/02 00:19:38;;;;;;;0.00;0.00;;;;;;;6.30;100.00;100049.66;276385;35;5155;-74
2022/12/02 00:19:49;;;;;;;0.00;0.00;;;;;;;6.31;100.00;100053.09;277427;35;6481;-74
2022/12/02 00:19:59;;;;;;;0.10;0.10;;;;;;;6.31;100.00;100051.34;275839;35;7703;-74
2022/12/02 00:20:10;;;;;;;0.10;0.10;;;;;;;6.31;100.00;100050.50;274210;36;3689;-74
2022/12/02 00:20:20;;;;;;;0.07;0.07;;;;;;;6.30;100.00;100052.25;269795;36;945;-74
2022/12/02 00:20:31;;;;;;;0.00;0.00;;;;;;;6.30;100.00;100054.84;270679;36;9104;-74
2022/12/02 00:20:42;;;;;;;0.00;0.00;;;;;;;6.30;100.00;100047.03;271424;36;9324;-74
2022/12/02 00:20:52;;;;;;;0.00;0.00;;;;;;;6.30;100.00;100044.44;270562;36;964;-74
2022/12/02 00:22:46;;;;;;;0.23;0.23;;;;;;;6.30;100.00;100051.38;2501954;27;20276;-74
2022/12/02 00:22:56;;;;;;;0.00;0.00;;;;;;;6.29;100.00;100053.13;351661;28;1560;-73
2022/12/02 00:23:06;;;;;;;0.00;0.00;;;;;;;6.30;100.00;100057.44;347760;28;1963;-73
2022/12/02 00:23:17;;;;;;;0.00;0.00;;;;;;;6.31;100.00;100053.09;348494;28;1217;-73
2022/12/02 00:23:27;;;;;;;0.00;0.00;;;;;;;6.30;100.00;100052.25;348898;28;1546;-74
2022/12/02 00:23:38;;;;;;;0.00;0.00;;;;;;;6.30;100.00;100054.84;349027;28;1007;-74
2022/12/02 00:23:48;;;;;;;0.00;0.00;;;;;;;6.28;100.00;100061.81;349058;28;919;-74
2022/12/02 00:23:59;;;;;;;0.00;0.00;;;;;;;6.28;100.00;100050.56;349133;28;1199;-74
2022/12/02 00:24:09;;;;;;;0.00;0.00;;;;;;;6.27;100.00;100052.28;349908;28;1823;-74
2022/12/02 00:24:19;;;;;;;0.00;0.00;;;;;;;6.28;100.00;100059.22;351752;28;1784;-73
2022/12/02 00:24:30;;;;;;;0.00;0.00;;;;;;;6.28;100.00;100051.41;350241;28;1316;-73
2022/12/02 00:24:40;;;;;;;0.00;0.00;;;;;;;6.29;100.00;100054.88;349835;28;1394;-73
2022/12/02 00:24:50;;;;;;;0.00;0.00;;;;;;;6.28;100.00;100056.59;347599;28;1324;-73
2022/12/02 00:25:01;;;;;;;0.00;0.00;;;;;;;6.29;100.00;100052.25;347695;28;1017;-73
2022/12/02 00:25:11;;;;;;;0.00;0.00;;;;;;;6.29;100.00;100050.53;350354;28;991;-73
2022/12/02 00:25:22;;;;;;;0.00;0.00;;;;;;;6.29;100.00;100057.47;350792;28;976;-73
2022/12/02 00:25:32;;;;;;;0.00;0.00;;;;;;;6.29;100.00;100047.94;351471;28;4785;-73
2022/12/02 00:25:45;;;;;;;0.00;0.00;;;;;;;6.29;100.00;100053.13;350403;28;1219;-73
2022/12/02 00:25:56;;;;;;;0.00;0.00;;;;;;;6.29;100.00;100053.13;349086;28;908;-73
2022/12/02 00:26:06;;;;;;;0.00;0.00;;;;;;;6.28;100.00;100047.94;348993;28;1820;-73
2022/12/02 00:26:16;;;;;;;0.00;0.00;;;;;;;6.28;100.00;100046.22;350449;28;1730;-73
2022/12/02 00:26:27;;;;;;;0.00;0.00;;;;;;;6.28;100.00;100048.81;351524;28;1676;-73
2022/12/02 00:26:37;;;;;;;0.00;0.00;;;;;;;6.28;100.00;100050.56;348873;28;1017;-73
2022/12/02 00:26:48;;;;;;;0.00;0.00;;;;;;;6.28;100.00;100051.41;349090;28;867;-73
2022/12/02 00:26:58;;;;;;;0.00;0.00;;;;;;;6.28;100.00;100046.22;346350;28;869;-73
2022/12/02 00:27:08;;;;;;;0.00;0.00;;;;;;;6.28;100.00;100054.00;348087;28;960;-74
2022/12/02 00:27:19;;;;;;;0.00;0.00;;;;;;;6.28;100.00;100051.41;350450;28;1630;-73
2022/12/02 00:27:29;;;;;;;0.00;0.00;;;;;;;6.28;100.00;100051.41;344922;28;1209;-73
2022/12/02 00:27:40;;;;;;;0.00;0.00;;;;;;;6.28;100.00;100056.59;347565;28;1398;-73
2022/12/02 00:27:50;;;;;;;0.00;0.00;;;;;;;6.28;100.00;100051.41;348925;28;1643;-73
2022/12/02 00:28:00;;;;;;;0.00;0.00;;;;;;;6.28;100.00;100054.00;346316;28;1358;-73
2022/12/02 00:28:11;;;;;;;0.00;0.00;;;;;;;6.29;100.00;100050.53;347391;28;1837;-73
2022/12/02 00:28:21;;;;;;;0.00;0.00;;;;;;;6.29;100.00;100062.66;343348;28;1340;-73
2022/12/02 00:28:32;;;;;;;0.00;0.00;;;;;;;6.29;100.00;100050.53;345000;28;999;-73
2022/12/02 00:28:42;;;;;;;0.00;0.00;;;;;;;6.29;100.00;100053.13;347418;28;1106;-73
2022/12/02 00:28:52;;;;;;;0.00;0.00;;;;;;;6.29;100.00;100050.53;345633;28;1859;-73
2022/12/02 00:29:03;;;;;;;0.00;0.00;;;;;;;6.29;100.00;100052.25;342314;28;846;-73
2022/12/02 00:29:13;;;;;;;0.00;0.00;;;;;;;6.29;100.00;100053.13;342187;28;1068;-73
2022/12/02 00:29:23;;;;;;;0.00;0.00;;;;;;;6.29;100.00;100052.25;345509;28;1418;-73
2022/12/02 00:29:34;;;;;;;0.00;0.00;;;;;;;6.27;100.00;100044.50;346173;28;1334;-73
2022/12/02 00:29:44;;;;;;;0.00;0.00;;;;;;;6.28;100.00;100051.41;344919;28;896;-73
2022/12/02 00:29:55;;;;;;;0.00;0.00;;;;;;;6.28;100.00;100051.41;347597;28;1288;-73
2022/12/02 00:30:06;;;;;;;0.00;0.00;;;;;;;6.27;100.00;100049.69;348979;28;865;-73
2022/12/02 00:30:16;;;;;;;0.00;0.00;;;;;;;6.28;100.00;100051.41;348471;28;825;-73
2022/12/02 00:30:26;;;;;;;0.00;0.00;;;;;;;6.28;100.00;100051.41;344229;28;1236;-73
2022/12/02 00:30:37;;;;;;;0.00;0.00;;;;;;;6.27;100.00;100052.28;340082;28;1645;-72
2022/12/02 00:30:47;;;;;;;0.00;0.00;;;;;;;6.27;100.00;100052.28;341039;29;916;-72
2022/12/02 00:30:58;;;;;;;0.00;0.00;;;;;;;6.27;100.00;100049.69;345363;28;1272;-72
2022/12/02 00:31:08;;;;;;;0.00;0.00;;;;;;;6.28;100.00;100051.41;343259;28;1692;-72
2022/12/02 00:31:19;;;;;;;0.00;0.00;;;;;;;6.27;100.00;100049.69;340875;29;915;-74
2022/12/02 00:31:29;;;;;;;0.00;0.00;;;;;;;6.27;100.00;100052.28;340634;29;2067;-74
2022/12/02 00:31:39;;;;;;;0.00;0.00;;;;;;;6.26;100.00;100044.53;341344;28;1711;-73
2022/12/02 00:31:50;;;;;;;0.00;0.00;;;;;;;6.26;100.00;100053.16;339622;29;1023;-73
2022/12/02 00:32:00;;;;;;;0.00;0.00;;;;;;;6.25;100.00;100046.25;340903;29;1331;-73
2022/12/02 00:32:11;;;;;;;0.00;0.00;;;;;;;6.27;100.00;100048.84;342079;28;1238;-73
2022/12/02 00:32:21;;;;;;;0.00;0.00;;;;;;;6.26;100.00;100057.50;339105;28;1363;-73
2022/12/02 00:32:31;;;;;;;0.00;0.00;;;;;;;6.26;100.00;100049.72;338246;29;1191;-73
2022/12/02 00:32:42;;;;;;;0.00;0.00;;;;;;;6.27;100.00;100057.50;339219;29;1527;-73
2022/12/02 00:32:52;;;;;;;0.00;0.00;;;;;;;6.25;100.00;100046.25;337615;29;1823;-73
2022/12/02 00:33:03;;;;;;;0.00;0.00;;;;;;;6.25;100.00;100046.25;333100;29;1338;-73
2022/12/02 00:33:14;;;;;;;0.00;0.00;;;;;;;6.26;100.00;100058.38;333064;29;2466;-73
2022/12/02 00:33:24;;;;;;;0.00;0.00;;;;;;;6.27;100.00;100052.28;333804;29;2189;-73
2022/12/02 00:33:35;;;;;;;0.00;0.00;;;;;;;6.26;100.00;100050.56;331631;29;2193;-73
2022/12/02 00:33:45;;;;;;;0.00;0.00;;;;;;;6.28;100.00;100050.56;329464;29;1194;-73
2022/12/02 00:33:56;;;;;;;0.00;0.00;;;;;;;6.27;100.00;100049.69;330758;29;1774;-73
2022/12/02 00:34:07;;;;;;;0.00;0.00;;;;;;;6.28;100.00;100051.41;329300;30;941;-73
2022/12/02 00:34:17;;;;;;;0.00;0.00;;;;;;;6.28;100.00;100051.41;330946;29;1451;-73
2022/12/02 00:34:28;;;;;;;0.00;0.00;;;;;;;6.27;100.00;100052.28;331714;29;1344;-73
2022/12/02 00:34:38;;;;;;;0.00;0.00;;;;;;;6.28;100.00;100056.59;330684;29;1867;-73
2022/12/02 00:34:48;;;;;;;0.00;0.00;;;;;;;6.27;100.00;100054.88;331875;29;1287;-74
2022/12/02 00:34:59;;;;;;;0.00;0.00;;;;;;;6.28;100.00;100045.34;325493;30;2101;-74
2022/12/02 00:35:09;;;;;;;0.00;0.00;;;;;;;6.28;100.00;100061.81;322816;30;2474;-73
2022/12/02 00:35:21;;;;;;;0.00;0.00;;;;;;;6.28;100.00;100054.00;324023;29;2588;-73
2022/12/02 00:35:31;;;;;;;0.00;0.00;;;;;;;6.28;100.00;100050.56;326844;30;1403;-73
2022/12/02 00:35:42;;;;;;;0.00;0.00;;;;;;;6.28;100.00;100056.59;326069;30;2812;-73
2022/12/02 00:35:52;;;;;;;0.00;0.00;;;;;;;6.27;100.00;100044.50;324165;30;2794;-73
2022/12/02 00:36:03;;;;;;;0.00;0.00;;;;;;;6.28;100.00;100061.81;322112;30;1193;-73
2022/12/02 00:36:13;;;;;;;0.00;0.00;;;;;;;6.27;100.00;100049.69;323917;30;1857;-73
2022/12/02 00:36:24;;;;;;;0.00;0.00;;;;;;;6.28;100.00;100050.56;326654;30;1749;-73
2022/12/02 00:36:35;;;;;;;0.00;0.00;;;;;;;6.28;100.00;100051.41;323226;30;1295;-73
2022/12/02 00:36:45;;;;;;;0.00;0.00;;;;;;;6.27;100.00;100049.69;319833;30;1808;-74
2022/12/02 00:36:56;;;;;;;0.00;0.00;;;;;;;6.28;100.00;100051.41;316958;31;2708;-74
2022/12/02 00:37:06;;;;;;;0.00;0.00;;;;;;;6.28;100.00;100054.00;314826;30;2950;-74
2022/12/02 00:37:16;;;;;;;0.00;0.00;;;;;;;6.29;100.00;100054.88;316451;31;878;-74
2022/12/02 00:37:27;;;;;;;0.00;0.00;;;;;;;6.29;100.00;100053.13;317075;30;3282;-73
2022/12/02 00:37:37;;;;;;;0.00;0.00;;;;;;;6.29;100.00;100053.13;313935;31;3391;-73
2022/12/02 00:37:48;;;;;;;0.00;0.00;;;;;;;6.29;100.00;100052.25;312048;31;4851;-73
2022/12/02 00:37:58;;;;;;;0.00;0.00;;;;;;;6.28;100.00;100050.56;315217;31;3756;-73
2022/12/02 00:38:08;;;;;;;0.07;0.07;;;;;;;6.28;100.00;100050.56;314378;31;3568;-73
2022/12/02 00:38:19;;;;;;;0.10;0.10;;;;;;;6.27;100.00;100052.28;312655;31;1806;-73
2022/12/02 00:38:29;;;;;;;0.10;0.10;;;;;;;6.28;100.00;100050.56;310328;31;3926;-73
2022/12/02 00:38:39;;;;;;;0.00;0.00;;;;;;;6.28;100.00;100051.41;309401;31;2255;-73
2022/12/02 00:38:50;;;;;;;0.00;0.00;;;;;;;6.28;100.00;100045.34;308100;31;2972;-73
2022/12/02 00:39:00;;;;;;;0.00;0.00;;;;;;;6.28;100.00;100055.75;307519;32;953;-73
2022/12/02 00:39:11;;;;;;;0.00;0.00;;;;;;;6.29;100.00;100047.94;309227;31;3730;-73
2022/12/02 00:39:21;;;;;;;0.00;0.00;;;;;;;6.28;100.00;100060.94;308183;31;3812;-73
2022/12/02 00:39:31;;;;;;;0.00;0.00;;;;;;;6.27;100.00;100054.88;307284;31;1545;-73
2022/12/02 00:39:42;;;;;;;0.00;0.00;;;;;;;6.27;100.00;100049.69;305914;32;4597;-73
2022/12/02 00:39:52;;;;;;;0.00;0.00;;;;;;;6.28;100.00;100051.41;305209;32;4781;-73
2022/12/02 00:40:03;;;;;;;0.00;0.00;;;;;;;6.28;100.00;100056.59;306536;32;885;-73
2022/12/02 00:40:13;;;;;;;0.00;0.00;;;;;;;6.28;100.00;100056.59;307388;31;4692;-73
2022/12/02 00:40:24;;;;;;;0.00;0.00;;;;;;;6.28;100.00;100055.75;303752;32;4736;-73
2022/12/02 00:40:34;;;;;;;0.00;0.00;;;;;;;6.28;100.00;100050.56;303345;32;1337;-73
2022/12/02 00:40:44;;;;;;;0.00;0.00;;;;;;;6.27;100.00;100054.88;302939;32;3372;-73
2022/12/02 00:40:55;;;;;;;0.00;0.00;;;;;;;6.28;100.00;100051.41;303803;32;3529;-73
2022/12/02 00:41:05;;;;;;;0.00;0.00;;;;;;;6.28;100.00;100060.94;300849;32;4286;-73
2022/12/02 00:41:16;;;;;;;0.00;0.00;;;;;;;6.28;100.00;100050.56;299200;32;1601;-73
2022/12/02 00:41:26;;;;;;;0.00;0.00;;;;;;;6.27;100.00;100049.69;297287;33;5571;-73
2022/12/02 00:41:36;;;;;;;0.00;0.00;;;;;;;6.27;100.00;100049.69;295413;33;5867;-73
2022/12/02 00:41:47;;;;;;;0.00;0.00;;;;;;;6.28;100.00;100051.41;298145;33;1976;-73
2022/12/02 00:41:57;;;;;;;0.00;0.00;;;;;;;6.27;100.00;100049.69;297260;33;6489;-73
2022/12/02 00:42:08;;;;;;;0.00;0.00;;;;;;;6.28;100.00;100053.16;296065;33;6898;-74
2022/12/02 00:42:18;;;;;;;0.00;0.00;;;;;;;6.28;100.00;100050.56;297130;33;1254;-73
2022/12/02 00:42:28;;;;;;;0.00;0.00;;;;;;;6.28;100.00;100051.41;294915;33;6312;-73
2022/12/02 00:42:39;;;;;;;0.00;0.00;;;;;;;6.28;100.00;100050.56;291856;33;6393;-73
2022/12/02 00:42:49;;;;;;;0.00;0.00;;;;;;;6.28;100.00;100061.81;291747;33;1514;-73
2022/12/02 00:47:45;;;;;;;0.32;0.32;;;;;;;6.30;100.00;100051.38;2497087;27;20817;-72
2022/12/02 00:47:56;;;;;;;0.00;0.00;;;;;;;6.27;100.00;100049.69;353334;28;895;-72
2022/12/02 00:48:06;;;;;;;0.00;0.00;;;;;;;6.28;100.00;100047.94;351260;28;1838;-73
2022/12/02 00:48:17;;;;;;;0.00;0.00;;;;;;;6.27;100.00;100049.69;347559;28;1390;-73
2022/12/02 00:48:27;;;;;;;0.00;0.00;;;;;;;6.27;100.00;100052.28;346223;28;1221;-73
2022/12/02 00:48:37;;;;;;;0.00;0.00;;;;;;;6.27;100.00;100062.69;347627;28;1967;-73
2022/12/02 00:48:48;;;;;;;0.00;0.00;;;;;;;6.27;100.00;100049.69;347935;28;1646;-73
2022/12/02 00:48:59;;;;;;;0.00;0.00;;;;;;;6.27;100.00;100060.09;348159;28;5103;-73
2022/12/02 00:49:13;;;;;;;0.00;0.00;;;;;;;6.25;100.00;100054.06;347513;28;978;-73
2022/12/02 00:49:23;;;;;;;0.00;0.00;;;;;;;6.26;100.00;100058.38;347418;28;1035;-73
2022/12/02 00:49:33;;;;;;;0.00;0.00;;;;;;;6.25;100.00;100059.25;347760;28;845;-72
2022/12/02 00:49:44;;;;;;;0.10;0.10;;;;;;;6.26;100.00;100047.97;348858;28;1310;-73
2022/12/02 00:49:54;;;;;;;0.10;0.10;;;;;;;6.27;100.00;100059.22;348860;28;1239;-74
2022/12/02 00:50:05;;;;;;;0.10;0.10;;;;;;;6.26;100.00;100045.38;348874;28;1287;-74
2022/12/02 00:50:16;;;;;;;0.00;0.00;;;;;;;6.26;100.00;100055.78;345717;28;1121;-74
2022/12/02 00:50:26;;;;;;;0.00;0.00;;;;;;;6.26;100.00;100058.38;347000;28;1452;-74
2022/12/02 00:50:36;;;;;;;0.00;0.00;;;;;;;6.27;100.00;100060.09;347732;28;955;-74
2022/12/02 00:50:47;;;;;;;0.00;0.00;;;;;;;6.27;100.00;100049.69;347431;28;933;-73
2022/12/02 00:50:57;;;;;;;0.00;0.00;;;;;;;6.27;100.00;100054.88;346249;28;873;-73
2022/12/02 00:51:08;;;;;;;0.00;0.00;;;;;;;6.27;100.00;100054.88;347501;28;1386;-73
2022/12/02 00:51:18;;;;;;;0.00;0.00;;;;;;;6.27;100.00;100054.88;347576;28;1299;-73
2022/12/02 00:51:29;;;;;;;0.00;0.00;;;;;;;6.27;100.00;100047.09;347508;28;1236;-73
2022/12/02 00:51:40;;;;;;;0.00;0.00;;;;;;;6.26;100.00;100047.97;348168;28;1203;-73
2022/12/02 00:51:50;;;;;;;0.00;0.00;;;;;;;6.26;100.00;100053.16;349012;28;970;-73
2022/12/02 00:52:00;;;;;;;0.00;0.00;;;;;;;6.27;100.00;100060.09;349842;28;1509;-73
2022/12/02 00:52:11;;;;;;;0.00;0.00;;;;;;;6.28;100.00;100061.81;347934;28;1838;-73
2022/12/02 00:52:21;;;;;;;0.00;0.00;;;;;;;6.28;100.00;100051.41;348950;28;963;-73
2022/12/02 00:52:32;;;;;;;0.00;0.00;;;;;;;6.27;100.00;100049.69;347668;28;942;-73
2022/12/02 00:52:42;;;;;;;0.00;0.00;;;;;;;6.28;100.00;100055.75;346260;28;1185;-73
2022/12/02 00:52:52;;;;;;;0.00;0.00;;;;;;;6.27;100.00;100047.09;346176;28;1267;-73
2022/12/02 00:53:03;;;;;;;0.00;0.00;;;;;;;6.28;100.00;100046.22;344879;28;1492;-73
2022/12/02 00:53:13;;;;;;;0.00;0.00;;;;;;;6.28;100.00;100050.56;348471;28;1929;-73
2022/12/02 00:53:23;;;;;;;0.00;0.00;;;;;;;6.29;100.00;100053.13;348918;28;891;-73
2022/12/02 00:53:34;;;;;;;0.00;0.00;;;;;;;6.28;100.00;100054.00;349113;28;794;-73
2022/12/02 00:53:44;;;;;;;0.00;0.00;;;;;;;6.28;100.00;100051.41;347064;28;1529;-73
2022/12/02 00:53:55;;;;;;;0.00;0.00;;;;;;;6.27;100.00;100049.69;343438;28;929;-73
2022/12/02 00:54:05;;;;;;;0.00;0.00;;;;;;;6.27;100.00;100059.22;344551;28;1273;-73
2022/12/02 00:54:16;;;;;;;0.00;0.00;;;;;;;6.27;100.00;100059.22;342161;28;888;-73
2022/12/02 00:54:26;;;;;;;0.00;0.00;;;;;;;6.26;100.00;100053.16;341625;28;1332;-73
2022/12/02 00:54:36;;;;;;;0.00;0.00;;;;;;;6.27;100.00;100059.22;341372;28;1177;-73
2022/12/02 00:54:47;;;;;;;0.00;0.00;;;;;;;6.27;100.00;100049.69;343655;28;949;-73
2022/12/02 00:54:57;;;;;;;0.00;0.00;;;;;;;6.28;100.00;100054.00;344865;28;1374;-73
2022/12/02 00:55:08;;;;;;;0.00;0.00;;;;;;;6.29;100.00;100047.06;342113;28;1290;-73
2022/12/02 00:55:18;;;;;;;0.00;0.00;;;;;;;6.28;100.00;100051.41;344781;28;1574;-73
2022/12/02 00:55:29;;;;;;;0.00;0.00;;;;;;;6.29;100.00;100054.88;344192;28;2254;-73
2022/12/02 00:55:39;;;;;;;0.00;0.00;;;;;;;6.27;100.00;100059.22;342056;28;1286;-73
2022/12/02 00:55:49;;;;;;;0.00;0.00;;;;;;;6.26;100.00;100058.38;341983;28;1255;-73
2022/12/02 00:56:00;;;;;;;0.00;0.00;;;;;;;6.27;100.00;100048.84;338262;29;887;-73
2022/12/02 00:56:10;;;;;;;0.00;0.00;;;;;;;6.28;100.00;100055.75;336325;29;1320;-73
2022/12/02 00:56:21;;;;;;;0.00;0.00;;;;;;;6.27;100.00;100049.69;334229;29;4165;-73
2022/12/02 00:56:31;;;;;;;0.00;0.00;;;;;;;6.28;100.00;100050.56;335270;29;3354;-73
2022/12/02 00:56:42;;;;;;;0.10;0.10;;;;;;;6.27;100.00;100049.69;332220;29;1926;-73
2022/12/02 00:56:52;;;;;;;0.10;0.10;;;;;;;6.27;100.00;100057.50;335517;29;1967;-73
2022/12/02 00:57:02;;;;;;;0.10;0.10;;;;;;;6.28;100.00;100050.56;332900;29;3441;-73
2022/12/02 00:57:13;;;;;;;0.00;0.00;;;;;;;6.26;100.00;100055.78;333188;29;1761;-73
2022/12/02 00:57:23;;;;;;;0.00;0.00;;;;;;;6.27;100.00;100051.44;334613;29;1191;-73
2022/12/02 00:57:34;;;;;;;0.00;0.00;;;;;;;6.26;100.00;100047.97;334323;29;1291;-73
2022/12/02 00:57:44;;;;;;;0.00;0.00;;;;;;;6.27;100.00;100054.03;336634;29;1475;-73
2022/12/02 00:57:54;;;;;;;0.10;0.10;;;;;;;6.26;100.00;100050.56;336782;29;1706;-73
2022/12/02 00:58:05;;;;;;;0.20;0.20;;;;;;;6.26;100.00;100049.72;333330;29;1993;-73
2022/12/02 00:58:15;;;;;;;0.10;0.10;;;;;;;6.26;100.00;100047.97;330963;29;874;-73
2022/12/02 00:58:25;;;;;;;0.00;0.00;;;;;;;6.27;100.00;100049.69;326959;30;2083;-73
2022/12/02 00:58:36;;;;;;;0.00;0.00;;;;;;;6.27;100.00;100060.09;325281;29;2183;-73
2022/12/02 00:58:46;;;;;;;0.00;0.00;;;;;;;6.27;100.00;100054.03;324431;30;1481;-73
2022/12/02 00:58:57;;;;;;;0.00;0.00;;;;;;;6.26;100.00;100058.38;326743;30;1644;-73
2022/12/02 00:59:07;;;;;;;0.00;0.00;;;;;;;6.27;100.00;100052.28;330825;29;924;-73
2022/12/02 00:59:17;;;;;;;0.00;0.00;;;;;;;6.28;100.00;100047.94;331923;29;1229;-73
2022/12/02 00:59:28;;;;;;;0.00;0.00;;;;;;;6.28;100.00;100053.16;331849;29;1271;-73
2022/12/02 00:59:38;;;;;;;0.00;0.00;;;;;;;6.28;100.00;100048.81;329550;29;1718;-73
2022/12/02 00:59:49;;;;;;;0.00;0.00;;;;;;;6.29;100.00;100050.53;325839;30;1304;-73
2022/12/02 00:59:59;;;;;;;0.00;0.00;;;;;;;6.29;100.00;100047.94;324206;30;1687;-73
2022/12/02 01:00:10;;;;;;;0.00;0.00;;;;;;;6.28;100.00;100051.41;322322;30;2298;-73
2022/12/02 01:00:20;;;;;;;0.00;0.00;;;;;;;6.28;100.00;100048.81;322481;30;2519;-73
2022/12/02 01:00:31;;;;;;;0.00;0.00;;;;;;;6.29;100.00;100050.53;329384;30;1358;-73
2022/12/02 01:00:41;;;;;;;0.00;0.00;;;;;;;6.28;100.00;100051.41;330196;29;2734;-73
2022/12/02 01:00:51;;;;;;;0.00;0.00;;;;;;;6.29;100.00;100052.25;329003;30;2805;-73